Time;durP1;ratioP1;P1;durP2;ratioP2;P2;SDS_P1;SDS_P2;PMS_P1;PMS_P2;Temp;Humidity;BMP_temperature;BMP_pressure;BME280_temperature;BME280_humidity;BME280_pressure;Samples;Min_cycle;Max_cycle;Signal;HPM_P1;HPM_P2
2023/06/13 00:01:11;;;;;;;5.40;3.90;;;;;;;21.63;57.43;101530.38;5068396;28;20536;-65
2023/06/13 00:03:37;;;;;;;5.25;3.78;;;;;;;21.59;56.95;101540.47;5067708;28;20526;-65
2023/06/13 00:06:02;;;;;;;7.47;4.00;;;;;;;21.52;56.85;101533.81;5067619;28;20048;-63
2023/06/13 00:08:34;;;;;;;4.50;3.35;;;;;;;21.52;56.66;101540.03;5068027;28;20032;-65
2023/06/13 00:11:00;;;;;;;4.78;3.53;;;;;;;21.48;56.59;101533.16;5067815;28;20394;-64
2023/06/13 00:13:25;;;;;;;3.90;3.50;;;;;;;21.43;56.08;101536.16;5066428;28;20037;-65
2023/06/13 00:15:56;;;;;;;4.10;3.20;;;;;;;21.39;56.77;101529.31;5067794;28;20097;-66
2023/06/13 00:18:22;;;;;;;4.72;3.92;;;;;;;21.37;56.40;101530.38;5067560;28;20456;-65
2023/06/13 01:33:36;;;;;;;6.00;4.10;;;;;;;19.75;70.72;101506.88;5142357;27;20412;-63
2023/06/13 01:36:02;;;;;;;7.93;4.40;;;;;;;19.65;72.16;101512.78;5110871;27;20032;-64
2023/06/13 01:38:27;;;;;;;5.82;4.28;;;;;;;19.55;72.55;101506.28;5124451;27;20474;-64
2023/06/13 01:40:52;;;;;;;6.45;4.63;;;;;;;19.45;72.59;101514.03;5123482;27;20118;-64
2023/06/13 01:43:18;;;;;;;7.07;3.92;;;;;;;19.40;72.96;101519.66;5124850;28;20067;-64
2023/06/13 01:45:44;;;;;;;5.40;4.00;;;;;;;19.33;74.09;101512.97;5113922;27;20020;-64
2023/06/13 01:48:26;;;;;;;6.15;4.45;;;;;;;19.42;72.76;101503.53;5119498;27;20027;-64
2023/06/13 01:51:26;;;;;;;11.52;5.28;;;;;;;19.66;70.78;101509.16;5116269;27;20032;-64
2023/06/13 01:53:56;;;;;;;6.40;4.60;;;;;;;19.67;71.88;101508.22;5117209;27;20054;-64
2023/06/13 01:56:27;;;;;;;9.13;4.47;;;;;;;19.61;71.75;101508.59;5117119;27;20019;-65
2023/06/13 01:58:56;;;;;;;7.00;4.63;;;;;;;19.64;69.97;101502.19;5111324;28;20035;-66
2023/06/13 02:01:22;;;;;;;9.32;4.63;;;;;;;19.65;69.62;101503.91;5107935;27;20203;-66
2023/06/13 02:03:47;;;;;;;7.72;4.35;;;;;;;19.62;69.62;101502.28;5104357;27;20486;-67
2023/06/13 02:06:12;;;;;;;5.78;4.60;;;;;;;19.49;71.30;101504.00;5123753;27;20035;-65
2023/06/13 02:08:38;;;;;;;6.47;4.43;;;;;;;19.39;72.53;101498.38;5123329;27;20027;-65
2023/06/13 02:11:03;;;;;;;8.73;4.57;;;;;;;19.35;72.67;101500.34;5124209;27;20473;-64
2023/06/13 02:13:28;;;;;;;6.43;4.70;;;;;;;19.29;72.73;101508.75;5122255;27;20054;-65
2023/06/13 02:15:54;;;;;;;8.85;4.63;;;;;;;19.15;75.10;101513.09;5123639;27;20238;-64
2023/06/13 02:18:20;;;;;;;8.23;5.00;;;;;;;19.05;75.82;101510.09;5122914;27;20028;-63
2023/06/13 02:20:45;;;;;;;13.77;5.13;;;;;;;18.96;76.74;101502.63;5123037;27;20368;-64
2023/06/13 02:23:11;;;;;;;10.65;4.90;;;;;;;18.89;76.37;101511.94;5123648;27;20034;-63
2023/06/13 02:25:36;;;;;;;9.00;4.78;;;;;;;18.86;76.55;101507.66;5124324;27;20067;-63
2023/06/13 02:28:01;;;;;;;8.48;4.45;;;;;;;18.75;76.74;101504.78;5123558;27;20023;-64
2023/06/13 02:30:27;;;;;;;7.35;5.05;;;;;;;18.69;77.24;101511.28;5125087;27;20035;-64
2023/06/13 02:32:53;;;;;;;15.80;4.70;;;;;;;18.69;77.50;101506.81;5060934;27;20486;-63
2023/06/13 02:35:22;;;;;;;8.30;4.82;;;;;;;18.66;76.83;101507.00;5027367;28;20113;-63
2023/06/13 02:37:54;;;;;;;9.95;4.53;;;;;;;18.71;75.66;101505.88;5028255;28;20464;-65
2023/06/13 02:40:20;;;;;;;6.10;4.93;;;;;;;18.63;76.55;101504.50;5095097;28;20038;-65
2023/06/13 02:42:47;;;;;;;6.18;4.35;;;;;;;18.58;76.83;101500.38;5025622;27;20033;-65
2023/06/13 02:45:13;;;;;;;5.13;4.63;;;;;;;18.49;77.12;101507.13;5026642;28;20098;-63
2023/06/13 02:47:38;;;;;;;9.60;5.10;;;;;;;18.48;77.39;101502.72;5025071;27;20473;-65
2023/06/13 02:50:04;;;;;;;7.97;4.53;;;;;;;18.51;76.81;101514.06;5020335;28;20044;-65
2023/06/13 02:52:29;;;;;;;7.43;5.07;;;;;;;18.44;77.26;101507.38;5026279;28;20033;-65
2023/06/13 02:54:54;;;;;;;7.25;4.63;;;;;;;18.37;77.38;101512.22;5025199;28;20346;-63
2023/06/13 02:57:20;;;;;;;9.82;4.80;;;;;;;18.41;76.75;101516.41;5023953;28;20025;-65
2023/06/13 02:59:47;;;;;;;7.68;4.50;;;;;;;18.38;76.82;101510.38;5025990;28;20481;-64
2023/06/13 03:02:12;;;;;;;13.13;5.50;;;;;;;18.34;76.74;101509.72;5024976;28;20400;-63
2023/06/13 03:04:38;;;;;;;6.97;4.82;;;;;;;18.30;76.83;101511.69;5023139;28;20022;-66
2023/06/13 03:07:04;;;;;;;8.43;4.55;;;;;;;18.33;77.43;101513.31;5022240;28;20492;-63
2023/06/13 03:09:29;;;;;;;5.72;4.40;;;;;;;18.27;78.15;101511.00;5025498;28;20052;-64
2023/06/13 03:11:55;;;;;;;7.03;4.80;;;;;;;18.23;78.43;101517.44;5024446;28;20064;-64
2023/06/13 03:14:20;;;;;;;5.22;4.65;;;;;;;18.18;78.92;101518.56;5025428;28;20044;-63
2023/06/13 03:16:46;;;;;;;11.20;4.45;;;;;;;18.23;78.76;101525.44;5027270;28;20025;-63
2023/06/13 03:19:11;;;;;;;7.00;5.00;;;;;;;18.18;79.26;101523.03;5025974;28;20022;-63
2023/06/13 03:21:36;;;;;;;5.97;5.07;;;;;;;18.16;78.92;101520.47;5027281;28;20412;-64
2023/06/13 03:24:02;;;;;;;9.65;4.80;;;;;;;18.16;79.09;101519.59;5027286;28;20021;-63
2023/06/13 03:26:28;;;;;;;5.68;3.97;;;;;;;18.15;78.77;101520.56;5027271;28;20053;-65
2023/06/13 03:28:53;;;;;;;8.90;4.72;;;;;;;18.19;78.64;101514.94;5027496;28;20033;-65
2023/06/13 03:31:19;;;;;;;5.38;4.88;;;;;;;18.15;78.70;101517.88;5095741;28;20029;-66
2023/06/13 03:33:44;;;;;;;6.97;4.97;;;;;;;18.08;80.35;101525.31;5027784;28;20130;-63
2023/06/13 03:36:10;;;;;;;6.72;4.68;;;;;;;18.06;79.86;101522.72;5027644;28;20083;-64
2023/06/13 03:38:36;;;;;;;6.53;4.70;;;;;;;17.95;81.23;101522.47;5027542;28;20025;-67
2023/06/13 03:41:01;;;;;;;6.68;4.60;;;;;;;17.98;81.05;101526.78;5026532;28;20068;-64
2023/06/13 03:43:26;;;;;;;5.35;4.80;;;;;;;17.88;81.11;101521.09;5027545;28;20021;-64
2023/06/13 03:45:53;;;;;;;7.10;4.53;;;;;;;17.83;81.13;101520.47;5094289;28;20067;-65
2023/06/13 03:48:18;;;;;;;6.65;4.65;;;;;;;17.87;80.12;101516.69;5027423;28;20113;-63
2023/06/13 03:50:43;;;;;;;6.13;4.55;;;;;;;17.93;80.38;101516.34;5027576;28;20441;-63
2023/06/13 03:53:09;;;;;;;9.80;4.97;;;;;;;17.89;79.30;101518.34;5027128;28;20041;-64
2023/06/13 03:55:34;;;;;;;6.38;4.47;;;;;;;18.01;78.27;101518.59;5027201;28;20032;-67
2023/06/13 03:57:59;;;;;;;9.98;4.60;;;;;;;17.93;79.63;101521.69;5026394;28;20085;-65
2023/06/13 04:00:25;;;;;;;6.80;4.68;;;;;;;17.95;78.98;101517.13;5027090;28;20100;-64
2023/06/13 04:02:52;;;;;;;7.93;4.80;;;;;;;18.04;78.36;101521.97;5026730;28;20037;-64
2023/06/13 04:05:18;;;;;;;5.80;4.38;;;;;;;17.99;79.15;101524.03;5027803;28;20032;-64
2023/06/13 04:07:44;;;;;;;7.93;4.97;;;;;;;17.95;79.35;101525.13;5026882;28;20029;-69
2023/06/13 04:10:10;;;;;;;6.68;4.75;;;;;;;18.09;78.70;101521.69;5026598;28;20021;-70
2023/06/13 04:12:36;;;;;;;7.70;5.03;;;;;;;18.00;79.01;101527.56;5026184;28;20500;-71
2023/06/13 04:15:02;;;;;;;9.73;4.85;;;;;;;18.10;78.76;101526.13;5026602;28;20030;-69
2023/06/13 04:17:28;;;;;;;6.55;4.35;;;;;;;18.12;78.30;101528.72;5026492;28;20070;-69
2023/06/13 04:19:54;;;;;;;7.78;4.43;;;;;;;18.05;79.29;101528.16;5026532;28;20032;-67
2023/06/13 04:22:19;;;;;;;7.07;4.63;;;;;;;18.10;78.54;101523.47;5026435;28;20501;-67
2023/06/13 04:24:45;;;;;;;8.50;4.47;;;;;;;18.08;78.77;101527.97;5026519;28;20022;-67
2023/06/13 04:27:13;;;;;;;6.32;4.70;;;;;;;18.24;77.85;101529.84;5025232;28;20086;-68
2023/06/13 04:29:40;;;;;;;13.00;4.80;;;;;;;18.21;77.99;101535.34;5021529;28;20029;-68
2023/06/13 04:32:07;;;;;;;5.95;4.70;;;;;;;18.31;77.16;101533.91;5025592;28;20132;-68
2023/06/13 04:34:33;;;;;;;8.93;4.63;;;;;;;18.37;77.16;101533.56;5026224;28;20052;-67
2023/06/13 04:37:02;;;;;;;8.02;4.55;;;;;;;18.40;76.76;101530.72;5025635;28;20092;-70
2023/06/13 04:39:28;;;;;;;;;;;;;;;18.61;75.81;101529.56;5026590;28;20026;-67
2023/06/13 04:41:55;;;;;;;9.00;4.75;;;;;;;18.59;75.58;101524.31;5025088;28;19909;-67
2023/06/13 04:44:28;;;;;;;5.03;4.40;;;;;;;18.63;75.06;101531.19;5025479;28;20056;-69
2023/06/13 04:46:57;;;;;;;9.65;4.55;;;;;;;18.65;75.54;101531.09;5025700;28;20038;-68
2023/06/13 04:49:27;;;;;;;7.03;4.85;;;;;;;18.67;75.25;101530.06;5092241;28;20017;-68
2023/06/13 04:51:54;;;;;;;9.20;5.13;;;;;;;18.75;75.17;101531.47;5023228;28;20076;-67
2023/06/13 04:54:21;;;;;;;8.82;4.45;;;;;;;18.75;74.81;101537.63;5023998;28;20033;-68
2023/06/13 04:56:47;;;;;;;7.45;4.82;;;;;;;18.81;75.37;101539.09;5024513;28;20501;-67
2023/06/13 04:59:13;;;;;;;8.15;4.70;;;;;;;18.93;73.91;101541.06;5025604;28;20034;-66
2023/06/13 05:01:38;;;;;;;8.30;4.97;;;;;;;18.85;74.62;101540.66;5092457;28;20389;-67
2023/06/13 05:04:04;;;;;;;7.78;4.80;;;;;;;18.99;74.44;101550.50;5025422;28;20030;-67
2023/06/13 05:06:29;;;;;;;7.72;5.32;;;;;;;18.99;74.12;101547.00;5024624;28;20017;-69
2023/06/13 05:08:55;;;;;;;8.02;5.03;;;;;;;19.10;73.35;101547.25;5025484;28;20057;-68
2023/06/13 05:11:20;;;;;;;8.00;4.93;;;;;;;19.17;73.00;101553.06;5092937;28;20021;-66
2023/06/13 05:13:45;;;;;;;9.95;5.00;;;;;;;19.20;73.60;101555.56;5026061;28;20036;-67
2023/06/13 05:16:11;;;;;;;12.88;5.10;;;;;;;19.27;73.26;101553.41;5020007;28;20105;-67
2023/06/13 05:18:40;;;;;;;11.48;5.30;;;;;;;19.24;73.97;101554.47;5025208;28;20081;-71
2023/06/13 05:21:06;;;;;;;9.93;4.85;;;;;;;19.30;73.86;101559.41;5025270;28;20033;-67
2023/06/13 05:23:31;;;;;;;8.27;5.63;;;;;;;19.29;73.36;101556.81;5025114;28;20037;-66
2023/06/13 05:25:57;;;;;;;8.48;5.40;;;;;;;19.34;73.49;101557.44;5024947;28;20522;-69
2023/06/13 05:28:22;;;;;;;10.55;5.13;;;;;;;19.45;72.62;101556.78;5025671;28;20025;-67
2023/06/13 05:30:48;;;;;;;6.15;5.00;;;;;;;19.47;72.40;101556.69;5025525;28;20049;-68
2023/06/13 05:33:16;;;;;;;7.95;5.22;;;;;;;19.53;72.56;101564.31;5024591;28;20081;-68
2023/06/13 05:35:42;;;;;;;6.50;5.20;;;;;;;19.42;73.48;101565.81;5025554;28;20025;-68
2023/06/13 05:38:11;;;;;;;9.55;5.22;;;;;;;19.60;72.50;101565.69;5092588;28;20396;-67
2023/06/13 05:40:37;;;;;;;10.05;5.40;;;;;;;19.81;71.67;101568.00;5025038;28;20021;-68
2023/06/13 05:43:03;;;;;;;8.55;5.18;;;;;;;19.79;72.19;101570.75;5024672;28;20036;-68
2023/06/13 05:45:28;;;;;;;8.45;5.40;;;;;;;19.72;72.93;101566.75;5076200;28;20108;-68
2023/06/13 05:47:53;;;;;;;10.88;4.78;;;;;;;19.93;72.70;101569.88;5025293;28;20516;-68
2023/06/13 05:50:19;;;;;;;8.95;4.90;;;;;;;20.08;71.73;101572.63;5026995;28;20476;-68
2023/06/13 05:52:44;;;;;;;7.05;5.65;;;;;;;20.17;73.56;101574.69;5033120;28;20065;-66
2023/06/13 05:55:10;;;;;;;12.35;5.10;;;;;;;20.16;72.70;101578.34;5024131;28;20029;-72
2023/06/13 05:57:43;;;;;;;7.93;5.32;;;;;;;20.25;72.79;101576.88;5023692;28;20026;-72
2023/06/13 06:00:13;;;;;;;10.77;4.70;;;;;;;20.33;71.58;101577.28;5030826;28;20106;-70
2023/06/13 06:02:42;;;;;;;7.07;4.47;;;;;;;20.44;70.16;101575.72;5024820;28;20061;-71
2023/06/13 06:05:13;;;;;;;;;;;;;;;20.55;71.12;101575.88;5025292;28;20112;-63
2023/06/13 06:07:41;;;;;;;9.07;4.97;;;;;;;20.64;70.80;101579.78;5025295;28;19913;-64
2023/06/13 06:10:07;;;;;;;11.15;5.25;;;;;;;20.63;70.96;101574.50;5027333;28;20018;-63
2023/06/13 06:12:33;;;;;;;20.50;5.43;;;;;;;20.60;73.32;101583.63;5027016;28;20493;-63
2023/06/13 06:15:00;;;;;;;9.52;4.72;;;;;;;20.65;71.61;101580.63;5028087;28;20063;-62
2023/06/13 06:17:25;;;;;;;8.15;5.00;;;;;;;20.73;72.14;101582.78;5027498;28;20039;-63
2023/06/13 06:19:51;;;;;;;9.85;5.50;;;;;;;20.60;73.91;101580.94;5027959;28;20438;-65
2023/06/13 06:22:16;;;;;;;9.20;5.13;;;;;;;20.54;74.12;101578.66;5036531;28;20021;-64
2023/06/13 06:24:42;;;;;;;14.77;5.28;;;;;;;20.67;74.24;101576.91;5023801;28;20022;-64
2023/06/13 06:27:07;;;;;;;9.27;4.68;;;;;;;20.96;72.27;101584.00;5085488;28;20030;-63
2023/06/13 06:29:33;;;;;;;6.97;4.80;;;;;;;21.11;71.02;101574.09;5026944;28;20025;-64
2023/06/13 06:31:58;;;;;;;7.25;5.07;;;;;;;21.24;70.69;101584.81;5027448;28;20098;-63
2023/06/13 06:34:23;;;;;;;10.43;5.32;;;;;;;21.36;69.76;101585.81;5027878;28;20108;-64
2023/06/13 06:36:49;;;;;;;6.88;4.95;;;;;;;21.58;68.51;101587.00;5096648;28;20049;-63
2023/06/13 06:39:15;;;;;;;6.68;4.93;;;;;;;21.73;68.11;101592.28;5027218;28;20466;-64
2023/06/13 06:41:41;;;;;;;10.07;4.78;;;;;;;21.72;70.24;101588.72;5027026;28;20060;-64
2023/06/13 06:44:07;;;;;;;8.50;4.50;;;;;;;21.88;68.73;101587.69;5024919;28;20052;-64
2023/06/13 06:46:33;;;;;;;7.90;4.53;;;;;;;22.05;66.82;101589.16;5015965;28;20517;-63
2023/06/13 06:48:58;;;;;;;7.10;4.10;;;;;;;22.20;65.10;101588.09;5027279;28;20049;-63
2023/06/13 06:51:23;;;;;;;8.55;3.80;;;;;;;22.36;60.71;101586.97;5027948;28;20129;-65
2023/06/13 06:53:50;;;;;;;6.45;3.70;;;;;;;22.55;60.64;101589.16;5027719;28;20026;-65
2023/06/13 06:56:15;;;;;;;6.25;4.38;;;;;;;22.68;58.28;101586.47;5028351;28;20028;-65
2023/06/13 06:58:41;;;;;;;5.30;3.95;;;;;;;22.88;58.12;101589.50;5027219;28;20100;-64
2023/06/13 07:01:06;;;;;;;16.77;4.40;;;;;;;22.96;57.36;101597.84;5095926;28;20033;-64
2023/06/13 07:03:32;;;;;;;6.45;4.00;;;;;;;23.06;57.72;101584.56;5028233;28;20017;-67
2023/06/13 07:05:57;;;;;;;7.20;4.10;;;;;;;23.12;55.79;101585.94;5027078;28;20037;-64
2023/06/13 07:08:23;;;;;;;4.93;3.95;;;;;;;23.22;54.33;101583.41;5027777;28;20030;-65
2023/06/13 07:10:48;;;;;;;9.07;3.97;;;;;;;23.43;53.05;101574.69;5027608;28;20030;-63
2023/06/13 07:13:13;;;;;;;9.48;4.13;;;;;;;23.48;52.88;101577.88;5020388;28;20385;-63
2023/06/13 07:15:38;;;;;;;8.90;4.03;;;;;;;23.41;53.22;101593.63;5007776;28;20113;-64
2023/06/13 07:18:05;;;;;;;9.13;3.58;;;;;;;23.34;54.11;101584.28;5008037;28;20110;-64
2023/06/13 07:20:30;;;;;;;10.95;4.30;;;;;;;23.56;53.75;101586.19;5008718;28;20431;-63
2023/06/13 07:22:55;;;;;;;8.75;4.13;;;;;;;23.61;52.72;101585.84;5023796;28;20029;-65
2023/06/13 07:25:21;;;;;;;7.07;4.15;;;;;;;23.69;52.49;101593.31;5026751;28;20448;-64
2023/06/13 07:27:46;;;;;;;9.45;3.78;;;;;;;23.79;52.53;101586.25;5027809;28;20075;-67
2023/06/13 07:30:11;;;;;;;6.78;3.85;;;;;;;23.85;52.65;101590.28;5026706;28;20022;-64
2023/06/13 07:32:37;;;;;;;5.10;3.67;;;;;;;24.00;50.50;101587.34;5027081;28;20064;-64
2023/06/13 07:35:03;;;;;;;10.57;4.18;;;;;;;24.01;50.85;101589.91;5027640;28;20499;-65
2023/06/13 07:37:28;;;;;;;5.53;3.83;;;;;;;24.18;50.31;101591.28;5026735;28;20600;-64
2023/06/13 07:39:53;;;;;;;6.97;3.53;;;;;;;24.33;49.65;101586.50;5026770;28;20066;-65
2023/06/13 07:42:19;;;;;;;10.77;3.65;;;;;;;24.44;48.73;101596.38;5025996;28;20476;-64
2023/06/13 07:44:44;;;;;;;6.82;3.70;;;;;;;24.64;47.11;101587.63;5103304;28;20379;-64
2023/06/13 07:47:10;;;;;;;5.22;4.20;;;;;;;24.62;46.94;101587.75;5110442;28;21151;-64
2023/06/13 07:49:35;;;;;;;8.30;4.45;;;;;;;24.72;46.70;101586.00;5109700;28;20388;-64
2023/06/13 07:52:01;;;;;;;8.85;3.85;;;;;;;24.79;46.95;101588.19;5109966;28;20433;-65
2023/06/13 07:54:26;;;;;;;8.02;3.63;;;;;;;24.91;45.81;101584.53;5025008;28;20068;-64
2023/06/13 07:56:52;;;;;;;6.00;3.92;;;;;;;24.84;44.41;101586.84;5006207;28;20498;-64
2023/06/13 07:59:20;;;;;;;5.72;3.90;;;;;;;24.99;43.77;101583.88;5007336;28;20079;-67
2023/06/13 08:01:45;;;;;;;3.67;3.33;;;;;;;25.15;43.29;101578.03;5007993;28;20034;-66
2023/06/13 08:04:10;;;;;;;8.15;3.83;;;;;;;25.23;44.06;101580.94;5008836;28;20025;-66
2023/06/13 08:06:36;;;;;;;8.88;3.80;;;;;;;25.33;43.77;101581.00;5027007;28;20460;-67
2023/06/13 08:09:01;;;;;;;6.78;3.80;;;;;;;25.43;43.91;101586.47;5025687;28;20432;-63
2023/06/13 08:11:27;;;;;;;7.25;3.72;;;;;;;25.54;42.94;101581.97;5025767;28;20049;-64
2023/06/13 08:13:52;;;;;;;6.57;3.53;;;;;;;25.68;42.46;101579.00;5083981;28;20026;-65
2023/06/13 08:16:17;;;;;;;13.70;3.70;;;;;;;25.57;44.02;101571.78;5026505;28;20026;-66
2023/06/13 08:18:43;;;;;;;10.93;3.53;;;;;;;25.66;43.65;101572.84;5025540;28;20033;-63
2023/06/13 08:21:08;;;;;;;5.00;3.75;;;;;;;25.69;43.10;101571.72;5025614;28;20108;-69
2023/06/13 08:23:33;;;;;;;4.07;3.67;;;;;;;25.73;42.37;101571.31;5079054;28;20025;-64
2023/06/13 08:25:59;;;;;;;6.45;3.72;;;;;;;25.89;40.53;101569.13;5024775;28;20107;-67
2023/06/13 08:28:25;;;;;;;7.43;4.07;;;;;;;25.77;41.20;101568.38;5025694;28;20162;-64
2023/06/13 08:30:51;;;;;;;5.80;3.70;;;;;;;25.37;42.47;101562.72;5016903;28;20041;-67
2023/06/13 08:33:17;;;;;;;8.40;3.90;;;;;;;25.64;41.71;101574.00;5006610;28;20060;-66
2023/06/13 08:35:42;;;;;;;7.10;3.80;;;;;;;25.98;41.43;101574.56;5005416;28;20021;-64
2023/06/13 08:38:07;;;;;;;5.20;3.78;;;;;;;26.19;40.58;101573.63;5006162;28;20065;-63
2023/06/13 08:40:32;;;;;;;9.63;3.83;;;;;;;26.09;40.76;101575.44;5021104;28;20040;-64
2023/06/13 08:43:00;;;;;;;6.55;4.13;;;;;;;26.23;40.99;101577.78;5025751;28;20036;-63
2023/06/13 08:45:25;;;;;;;6.68;4.07;;;;;;;25.86;40.63;101573.78;5092451;28;20022;-62
2023/06/13 08:47:52;;;;;;;6.97;3.83;;;;;;;25.83;40.51;101578.63;5025902;28;20017;-64
2023/06/13 08:50:24;;;;;;;8.02;3.85;;;;;;;25.91;41.90;101580.66;5026465;28;20029;-62
2023/06/13 08:52:49;;;;;;;7.40;4.07;;;;;;;25.88;39.27;101567.44;5025457;28;20033;-66
2023/06/13 08:55:16;;;;;;;11.57;3.90;;;;;;;26.14;37.69;101562.41;5025570;28;20388;-64
2023/06/13 08:57:42;;;;;;;5.90;4.00;;;;;;;26.40;37.38;101551.13;5024549;28;20161;-65
2023/06/13 09:00:10;;;;;;;6.45;3.72;;;;;;;26.48;35.70;101556.66;5025544;28;20108;-65
2023/06/13 09:02:36;;;;;;;8.98;4.13;;;;;;;26.49;35.57;101560.25;5006179;28;20041;-63
2023/06/13 09:05:03;;;;;;;6.53;3.83;;;;;;;26.52;34.87;101559.09;5005585;28;20026;-64
2023/06/13 09:07:30;;;;;;;13.10;4.25;;;;;;;26.47;34.29;101548.69;5006313;28;20026;-65
2023/06/13 09:09:55;;;;;;;7.00;3.80;;;;;;;26.47;35.28;101540.59;5005898;28;20470;-64
2023/06/13 09:12:21;;;;;;;9.18;4.13;;;;;;;26.65;35.29;101542.59;5077826;28;20045;-66
2023/06/13 09:14:46;;;;;;;13.00;4.38;;;;;;;26.54;34.20;101541.75;5093968;28;20114;-64
2023/06/13 09:17:12;;;;;;;13.95;3.80;;;;;;;26.78;34.04;101542.34;5025074;28;20025;-65
2023/06/13 09:19:37;;;;;;;14.25;4.13;;;;;;;26.45;33.24;101545.28;5023714;28;20029;-65
2023/06/13 09:22:02;;;;;;;10.00;4.20;;;;;;;26.84;32.07;101547.16;5023411;28;20349;-65
2023/06/13 09:24:30;;;;;;;7.15;4.15;;;;;;;26.93;32.24;101551.72;5016724;28;20098;-64
2023/06/13 09:26:57;;;;;;;11.35;3.90;;;;;;;27.02;32.01;101547.31;5002992;28;20018;-64
2023/06/13 09:29:32;;;;;;;11.27;4.05;;;;;;;27.04;30.96;101547.16;5003089;28;20040;-65
2023/06/13 09:31:59;;;;;;;7.65;4.03;;;;;;;27.15;32.62;101544.31;5003492;28;20110;-66
2023/06/13 09:34:25;;;;;;;8.50;3.50;;;;;;;27.12;32.64;101553.56;5020479;28;20041;-64
2023/06/13 09:36:51;;;;;;;7.82;3.85;;;;;;;27.14;32.54;101542.59;5024990;28;20026;-65
2023/06/13 09:39:16;;;;;;;4.90;3.83;;;;;;;27.30;32.53;101547.41;5026012;28;20021;-65
2023/06/13 09:41:41;;;;;;;6.05;3.75;;;;;;;27.25;32.39;101550.56;5091347;28;20648;-64
2023/06/13 09:44:07;;;;;;;8.55;3.67;;;;;;;27.40;32.81;101547.41;5093667;28;20025;-65
2023/06/13 09:46:36;;;;;;;6.85;4.18;;;;;;;27.32;32.27;101540.00;5028139;28;20117;-64
2023/06/13 09:49:02;;;;;;;9.93;4.80;;;;;;;27.38;32.17;101539.44;5028478;28;20116;-64
2023/06/13 09:51:32;;;;;;;8.02;3.85;;;;;;;27.34;31.64;101540.72;5029013;28;20430;-64
2023/06/13 09:53:58;;;;;;;7.72;3.83;;;;;;;27.58;32.56;101533.97;5014366;28;20166;-65
2023/06/13 09:56:24;;;;;;;6.47;3.70;;;;;;;27.65;32.17;101525.25;5007586;28;20041;-65
2023/06/13 09:58:50;;;;;;;9.30;3.90;;;;;;;27.78;33.38;101523.06;5008209;28;20030;-64
2023/06/13 10:01:18;;;;;;;8.70;4.28;;;;;;;27.90;31.87;101521.00;5009395;28;20028;-66
2023/06/13 10:03:44;;;;;;;5.75;4.07;;;;;;;27.96;32.69;101515.00;5009244;28;20025;-64
2023/06/13 10:06:10;;;;;;;5.50;4.10;;;;;;;27.97;31.33;101519.44;5008640;28;20469;-63
2023/06/13 10:08:36;;;;;;;8.27;4.07;;;;;;;28.07;30.98;101519.34;5009263;28;20370;-65
2023/06/13 10:11:12;;;;;;;8.13;3.90;;;;;;;27.77;32.47;101531.31;5008055;28;20051;-64
2023/06/13 10:13:48;;;;;;;9.63;3.78;;;;;;;27.84;32.67;101521.63;5076770;28;20022;-64
2023/06/13 10:16:14;;;;;;;8.13;3.92;;;;;;;28.10;31.05;101526.31;5076757;28;20126;-64
2023/06/13 10:18:41;;;;;;;7.90;3.72;;;;;;;28.22;30.82;101527.81;5088548;28;20513;-66
2023/06/13 10:21:08;;;;;;;7.45;3.72;;;;;;;28.46;29.92;101520.13;5094928;28;20107;-66
2023/06/13 10:23:40;;;;;;;8.10;3.83;;;;;;;28.47;31.00;101517.25;5096412;28;20025;-65
2023/06/13 10:26:11;;;;;;;10.60;4.07;;;;;;;28.58;31.23;101518.88;5080606;28;20034;-67
2023/06/13 10:28:51;;;;;;;5.35;3.80;;;;;;;28.64;28.71;101509.28;5027062;28;20438;-66
2023/06/13 10:31:46;;;;;;;7.20;3.72;;;;;;;28.19;30.31;101516.41;5027721;28;20033;-64
2023/06/13 10:34:34;;;;;;;8.35;4.22;;;;;;;28.51;31.10;101521.34;5026330;28;20166;-65
2023/06/13 10:37:03;;;;;;;7.07;3.90;;;;;;;28.84;30.70;101511.81;5080415;28;20432;-64
2023/06/13 10:39:49;;;;;;;8.43;3.90;;;;;;;28.69;30.89;101512.38;5008221;28;20038;-69
2023/06/13 10:42:36;;;;;;;9.48;4.05;;;;;;;28.96;30.12;101507.03;5008376;28;20078;-67
2023/06/13 10:45:03;;;;;;;9.70;4.07;;;;;;;29.17;29.21;101503.09;5074245;28;20053;-68
2023/06/13 10:47:29;;;;;;;8.30;3.90;;;;;;;29.46;29.23;101504.59;5007534;28;20018;-68
2023/06/13 10:49:56;;;;;;;11.32;4.30;;;;;;;29.41;28.34;101507.84;5007210;28;20146;-68
2023/06/13 10:52:22;;;;;;;6.35;4.15;;;;;;;29.54;29.02;101498.38;5075531;28;20034;-68
2023/06/13 10:54:52;;;;;;;16.42;7.30;;;;;;;29.59;28.30;101505.03;5007828;28;20041;-68
2023/06/13 10:57:18;;;;;;;6.60;5.00;;;;;;;29.70;28.99;101489.47;5008102;28;20022;-67
2023/06/13 10:59:43;;;;;;;10.52;4.07;;;;;;;29.47;29.97;101504.44;5007873;28;20045;-68
2023/06/13 11:02:13;;;;;;;10.15;4.75;;;;;;;29.69;28.26;101502.22;5094531;28;20022;-67
2023/06/13 11:04:39;;;;;;;7.40;3.70;;;;;;;29.86;29.15;101499.56;5091000;28;20037;-68
2023/06/13 11:07:20;;;;;;;6.53;4.40;;;;;;;29.91;27.59;101502.63;5025678;28;20022;-68
2023/06/13 11:10:00;;;;;;;8.90;4.05;;;;;;;29.67;28.48;101495.25;5025077;28;20473;-65
2023/06/13 11:12:26;;;;;;;8.27;4.07;;;;;;;29.63;27.74;101495.59;5029474;28;20081;-65
2023/06/13 11:14:56;;;;;;;6.93;4.00;;;;;;;29.94;27.27;101491.44;5020135;28;20128;-65
2023/06/13 11:17:21;;;;;;;6.63;3.97;;;;;;;29.88;27.43;101495.66;5025685;28;20021;-66
2023/06/13 11:19:46;;;;;;;4.32;3.90;;;;;;;29.71;28.79;101492.03;5026402;28;20362;-64
2023/06/13 11:22:15;;;;;;;4.22;3.55;;;;;;;29.63;29.40;101494.72;5025228;28;20021;-65
2023/06/13 11:24:41;;;;;;;12.40;3.60;;;;;;;29.80;28.26;101489.34;5025648;28;20029;-65
2023/06/13 11:27:07;;;;;;;4.47;3.17;;;;;;;30.09;27.80;101493.50;5022935;28;20040;-65
2023/06/13 11:29:33;;;;;;;8.77;3.70;;;;;;;30.09;29.10;101496.22;5026582;28;20502;-65
2023/06/13 11:32:00;;;;;;;11.45;4.63;;;;;;;30.14;28.00;101502.88;5092139;28;20052;-64
2023/06/13 11:34:28;;;;;;;6.25;3.58;;;;;;;30.41;27.12;101497.34;5034511;28;20389;-64
2023/06/13 11:36:59;;;;;;;5.57;3.75;;;;;;;30.42;27.01;101496.31;5035146;28;20021;-65
2023/06/13 11:39:30;;;;;;;5.63;3.60;;;;;;;30.49;30.11;101494.63;5094512;28;20052;-64
2023/06/13 11:41:57;;;;;;;4.95;3.95;;;;;;;29.95;28.81;101482.25;5088713;28;20030;-64
2023/06/13 11:44:22;;;;;;;10.48;4.05;;;;;;;29.93;27.44;101495.16;5019490;28;20034;-64
2023/06/13 11:46:48;;;;;;;8.38;4.13;;;;;;;30.34;28.32;101493.59;5093593;28;20081;-65
2023/06/13 11:49:17;;;;;;;6.93;3.92;;;;;;;30.44;27.81;101488.84;5033733;28;20025;-64
2023/06/13 11:51:43;;;;;;;10.07;4.13;;;;;;;30.48;27.70;101490.19;5033193;28;20108;-65
2023/06/13 11:54:10;;;;;;;5.68;3.90;;;;;;;30.63;27.67;101481.34;5025645;28;20422;-67
2023/06/13 11:56:40;;;;;;;9.45;4.07;;;;;;;30.54;28.46;101488.66;5024686;28;20135;-64
2023/06/13 11:59:18;;;;;;;5.35;3.72;;;;;;;30.68;27.95;101491.72;5026140;28;20402;-65
2023/06/13 12:01:48;;;;;;;5.53;3.50;;;;;;;30.85;26.36;101493.44;5026219;28;20025;-66
2023/06/13 12:04:14;;;;;;;4.85;3.67;;;;;;;31.09;28.01;101467.22;5023666;28;20038;-64
2023/06/13 12:06:40;;;;;;;4.18;3.67;;;;;;;31.30;27.15;101479.41;5023243;28;20030;-66
2023/06/13 12:09:06;;;;;;;5.32;3.70;;;;;;;31.23;27.44;101473.81;5095343;27;20041;-63
2023/06/13 12:11:31;;;;;;;5.47;3.65;;;;;;;31.42;27.21;101471.75;5023291;28;20025;-65
2023/06/13 12:14:01;;;;;;;5.55;4.00;;;;;;;31.87;26.91;101480.22;5087194;28;20029;-66
2023/06/13 12:16:34;;;;;;;11.10;3.92;;;;;;;31.62;25.98;101465.88;5025083;28;20054;-65
2023/06/13 12:19:00;;;;;;;6.15;3.70;;;;;;;31.53;27.62;101473.25;5025105;28;20033;-65
2023/06/13 12:21:36;;;;;;;10.20;3.60;;;;;;;32.27;27.13;101469.25;5025729;28;20067;-66
2023/06/13 12:24:03;;;;;;;8.05;3.88;;;;;;;32.62;26.52;101465.25;5025023;28;20034;-66
2023/06/13 12:26:33;;;;;;;7.93;3.95;;;;;;;33.00;26.71;101467.97;5080984;28;20473;-68
2023/06/13 12:29:01;;;;;;;8.65;3.50;;;;;;;33.57;26.00;101469.38;5026304;28;20037;-67
2023/06/13 12:31:41;;;;;;;7.03;4.28;;;;;;;33.82;24.97;101459.00;5026529;28;20021;-65
2023/06/13 12:34:28;;;;;;;13.68;4.25;;;;;;;33.73;24.06;101471.06;5094015;28;20060;-66
2023/06/13 12:37:04;;;;;;;5.53;3.25;;;;;;;34.26;24.43;101468.13;5026461;28;20041;-64